Time;durP1;ratioP1;P1;durP2;ratioP2;P2;SDS_P1;SDS_P2;PMS_P1;PMS_P2;Temp;Humidity;BMP_temperature;BMP_pressure;BME280_temperature;BME280_humidity;BME280_pressure;Samples;Min_cycle;Max_cycle;Signal;HPM_P1;HPM_P2
2023/01/26 00:00:42;;;;;;;50.85;28.38;;;;;;;;;;6267092;28;20065;-77
2023/01/26 00:03:44;;;;;;;78.00;37.72;;;;;;;;;;6266225;28;20070;-79
2023/01/26 00:06:46;;;;;;;76.05;26.10;;;;;;;;;;6263988;28;20332;-81
2023/01/26 00:09:48;;;;;;;39.90;22.15;;;;;;;;;;6263487;28;20053;-80
2023/01/26 00:12:51;;;;;;;37.28;20.90;;;;;;;;;;6263756;28;20061;-77
2023/01/26 00:15:52;;;;;;;41.22;22.92;;;;;;;;;;6263027;28;20383;-80
2023/01/26 00:18:54;;;;;;;39.15;21.58;;;;;;;;;;6266476;28;20049;-75
2023/01/26 00:21:56;;;;;;;40.53;22.15;;;;;;;;;;6262421;28;20053;-79
2023/01/26 00:24:57;;;;;;;38.58;22.70;;;;;;;;;;6264255;28;20045;-82
2023/01/26 00:28:00;;;;;;;38.70;21.75;;;;;;;;;;6266012;28;20057;-80
2023/01/26 00:31:03;;;;;;;38.85;22.70;;;;;;;;;;6263243;28;20053;-79
2023/01/26 00:34:05;;;;;;;40.67;21.92;;;;;;;;;;6261467;28;20122;-81
2023/01/26 00:37:06;;;;;;;43.20;23.13;;;;;;;;;;6263376;28;20083;-81
2023/01/26 00:40:09;;;;;;;40.00;23.27;;;;;;;;;;6264662;28;20069;-80
2023/01/26 00:43:12;;;;;;;40.63;21.77;;;;;;;;;;6265662;28;20102;-78
2023/01/26 00:46:14;;;;;;;41.13;22.27;;;;;;;;;;6261660;28;20053;-81
2023/01/26 00:49:16;;;;;;;44.30;23.75;;;;;;;;;;6263027;28;20053;-80
2023/01/26 00:52:17;;;;;;;37.35;21.83;;;;;;;;;;6263778;28;20053;-80
2023/01/26 00:55:19;;;;;;;39.03;21.33;;;;;;;;;;6260903;28;20045;-79
2023/01/26 00:58:22;;;;;;;37.88;22.55;;;;;;;;;;6260711;28;20218;-80
2023/01/26 01:01:24;;;;;;;37.92;21.67;;;;;;;;;;6261978;28;20060;-80
2023/01/26 01:04:26;;;;;;;35.85;20.83;;;;;;;;;;6261309;28;20053;-78
2023/01/26 01:07:27;;;;;;;37.22;21.05;;;;;;;;;;6262325;28;20046;-77
2023/01/26 01:10:29;;;;;;;41.92;21.35;;;;;;;;;;6260961;28;20072;-79
2023/01/26 01:13:32;;;;;;;35.10;21.70;;;;;;;;;;6263516;28;20094;-77
2023/01/26 01:16:34;;;;;;;33.03;20.90;;;;;;;;;;6264252;28;20049;-81
2023/01/26 01:19:36;;;;;;;36.55;20.70;;;;;;;;;;6268820;28;20056;-78
2023/01/26 01:22:38;;;;;;;35.70;21.10;;;;;;;;;;6268052;28;20114;-79
2023/01/26 01:25:40;;;;;;;39.10;21.58;;;;;;;;;;6266626;28;20052;-80
2023/01/26 01:28:43;;;;;;;36.72;20.73;;;;;;;;;;6268778;28;20049;-81
2023/01/26 01:31:45;;;;;;;40.90;21.43;;;;;;;;;;6266500;28;20701;-79
2023/01/26 01:34:47;;;;;;;45.38;22.08;;;;;;;;;;6273062;28;20098;-81
2023/01/26 01:37:48;;;;;;;39.83;20.77;;;;;;;;;;6272903;28;20045;-78
2023/01/26 01:40:50;;;;;;;40.30;21.88;;;;;;;;;;6275699;28;20280;-80
2023/01/26 01:44:17;;;;;;;37.28;20.75;;;;;;;;;;6266605;28;20052;-81
2023/01/26 01:47:25;;;;;;;37.30;22.23;;;;;;;;;;6262105;28;20336;-81
2023/01/26 01:50:27;;;;;;;37.60;21.58;;;;;;;;;;6269821;28;20064;-80
2023/01/26 01:53:33;;;;;;;40.08;22.13;;;;;;;;;;6267485;28;20391;-79
2023/01/26 01:56:35;;;;;;;37.00;22.15;;;;;;;;;;6266177;28;20056;-80
2023/01/26 01:59:38;;;;;;;35.67;20.65;;;;;;;;;;6263645;28;20130;-79
2023/01/26 02:02:41;;;;;;;39.42;22.58;;;;;;;;;;6260951;28;20071;-79
2023/01/26 02:05:48;;;;;;;41.67;22.55;;;;;;;;;;6264114;28;20119;-79
2023/01/26 02:08:52;;;;;;;42.13;23.23;;;;;;;;;;6268294;28;20049;-81
2023/01/26 02:11:54;;;;;;;36.40;22.33;;;;;;;;;;6262951;28;20146;-81
2023/01/26 02:14:58;;;;;;;40.25;22.17;;;;;;;;;;6264876;28;20049;-80
2023/01/26 02:18:03;;;;;;;42.40;21.92;;;;;;;;;;6262596;28;20040;-80
2023/01/26 02:21:06;;;;;;;40.38;22.08;;;;;;;;;;6268286;28;20046;-79
2023/01/26 02:24:13;;;;;;;39.38;20.90;;;;;;;;;;6266095;28;20053;-76
2023/01/26 02:27:16;;;;;;;38.60;20.67;;;;;;;;;;6265878;28;20057;-74
2023/01/26 02:30:18;;;;;;;36.63;20.65;;;;;;;;;;6264266;28;20045;-80
2023/01/26 02:33:20;;;;;;;37.20;20.98;;;;;;;;;;6265492;28;20329;-79
2023/01/26 02:36:23;;;;;;;37.60;20.42;;;;;;;;;;6262500;28;20061;-79
2023/01/26 02:39:34;;;;;;;39.08;21.65;;;;;;;;;;6265206;28;20064;-77
2023/01/26 02:42:42;;;;;;;42.10;20.83;;;;;;;;;;6266376;28;20060;-78
2023/01/26 02:45:44;;;;;;;35.35;20.38;;;;;;;;;;6261301;28;20226;-75
2023/01/26 02:52:05;;;;;;;36.00;20.70;;;;;;;;;;6261945;28;20144;-77
2023/01/26 02:55:25;;;;;;;34.65;20.70;;;;;;;;;;6264311;28;20289;-74
2023/01/26 02:58:28;;;;;;;39.00;19.95;;;;;;;;;;6261649;28;20110;-80
2023/01/26 03:01:29;;;;;;;33.15;20.00;;;;;;;;;;6259122;28;20053;-80
2023/01/26 03:04:31;;;;;;;33.13;19.42;;;;;;;;;;6262682;28;20049;-81
2023/01/26 03:07:33;;;;;;;34.03;19.58;;;;;;;;;;6262472;28;20060;-80
2023/01/26 03:10:35;;;;;;;37.10;20.42;;;;;;;;;;6262696;28;20253;-80
2023/01/26 03:13:38;;;;;;;36.83;20.05;;;;;;;;;;6264333;28;20093;-77
2023/01/26 03:16:41;;;;;;;38.13;20.25;;;;;;;;;;6266386;28;20107;-79
2023/01/26 03:29:37;;;;;;;34.10;19.08;;;;;;;;;;6262584;28;20084;-78
2023/01/26 03:32:39;;;;;;;37.30;20.65;;;;;;;;;;6261922;28;20041;-80
2023/01/26 03:35:41;;;;;;;36.97;20.13;;;;;;;;;;6259943;28;20064;-79
2023/01/26 03:38:42;;;;;;;33.83;20.80;;;;;;;;;;6265484;28;20057;-80
2023/01/26 03:58:23;;;;;;;43.13;24.00;;;;;;;;;;6260850;28;20061;-73
2023/01/26 04:01:27;;;;;;;36.83;23.35;;;;;;;;;;6266694;28;20044;-80
2023/01/26 04:11:07;;;;;;;45.40;25.08;;;;;;;;;;6264331;28;20054;-80
2023/01/26 04:24:12;;;;;;;44.65;25.08;;;;;;;;;;6265775;28;20056;-76
2023/01/26 04:27:14;;;;;;;44.50;25.13;;;;;;;;;;6270994;28;20057;-79
2023/01/26 04:30:17;;;;;;;47.95;24.52;;;;;;;;;;6269752;28;20090;-77
2023/01/26 04:33:20;;;;;;;46.00;24.25;;;;;;;;;;6265328;28;20060;-80
2023/01/26 04:36:22;;;;;;;43.08;23.20;;;;;;;;;;6270380;28;20237;-72
2023/01/26 04:39:23;;;;;;;40.65;22.50;;;;;;;;;;6268748;28;20282;-75
2023/01/26 04:42:25;;;;;;;45.72;22.58;;;;;;;;;;6271509;28;20103;-75
2023/01/26 04:45:27;;;;;;;41.80;22.83;;;;;;;;;;6273576;28;20053;-79
2023/01/26 04:48:30;;;;;;;39.70;22.75;;;;;;;;;;6263556;28;20049;-79
2023/01/26 04:51:32;;;;;;;39.27;22.87;;;;;;;;;;6265974;28;20055;-78
2023/01/26 04:54:34;;;;;;;39.60;22.67;;;;;;;;;;6276137;28;20147;-71
2023/01/26 04:57:36;;;;;;;37.83;21.05;;;;;;;;;;6269994;28;20233;-80
2023/01/26 05:00:37;;;;;;;44.08;22.10;;;;;;;;;;6262255;28;20232;-81
2023/01/26 05:03:40;;;;;;;40.78;21.98;;;;;;;;;;6262337;28;20053;-79
2023/01/26 05:06:43;;;;;;;42.15;22.30;;;;;;;;;;6262390;28;20048;-75
2023/01/26 05:09:44;;;;;;;39.92;21.33;;;;;;;;;;6264803;28;20052;-78
2023/01/26 05:12:46;;;;;;;39.13;20.85;;;;;;;;;;6265810;28;20095;-72
2023/01/26 05:15:48;;;;;;;38.17;19.35;;;;;;;;;;6266320;28;20387;-81
2023/01/26 05:18:51;;;;;;;34.50;20.52;;;;;;;;;;6266711;28;20048;-79
2023/01/26 05:21:52;;;;;;;39.45;20.73;;;;;;;;;;6263905;28;20171;-80
2023/01/26 05:24:54;;;;;;;36.10;20.10;;;;;;;;;;6269147;28;20053;-80
2023/01/26 05:27:56;;;;;;;38.78;20.35;;;;;;;;;;6265370;28;20103;-74
2023/01/26 05:30:57;;;;;;;32.35;19.27;;;;;;;;;;6264650;28;20329;-80
2023/01/26 05:34:00;;;;;;;33.80;19.95;;;;;;;;;;6265985;28;20053;-77
2023/01/26 05:37:02;;;;;;;33.20;18.75;;;;;;;;;;6268128;28;20115;-80
2023/01/26 05:40:04;;;;;;;36.42;19.48;;;;;;;;;;6263143;28;20047;-80
2023/01/26 05:43:07;;;;;;;36.33;17.75;;;;;;;;;;6266932;28;20515;-79
2023/01/26 05:46:08;;;;;;;38.55;18.98;;;;;;;;;;6259657;28;20041;-79
2023/01/26 05:49:11;;;;;;;33.25;18.08;;;;;;;;;;6270079;28;20091;-80
2023/01/26 05:52:16;;;;;;;30.67;17.88;;;;;;;;;;6265199;28;20053;-81
2023/01/26 05:55:17;;;;;;;;;;;;;;;;;;6263844;28;20080;-78
2023/01/26 05:58:19;;;;;;;30.88;16.48;;;;;;;;;;6264773;28;19925;-77
2023/01/26 06:01:21;;;;;;;33.55;17.63;;;;;;;;;;6264036;28;20214;-79
2023/01/26 06:04:24;;;;;;;29.95;16.13;;;;;;;;;;6265129;28;20053;-73
2023/01/26 06:07:26;;;;;;;30.43;16.83;;;;;;;;;;6260893;28;20060;-80
2023/01/26 06:10:28;;;;;;;31.15;17.83;;;;;;;;;;6265856;28;20349;-81
2023/01/26 06:13:29;;;;;;;35.92;19.75;;;;;;;;;;6264504;28;20060;-77
2023/01/26 06:16:31;;;;;;;34.50;21.17;;;;;;;;;;6261525;28;20049;-73
2023/01/26 06:19:34;;;;;;;40.63;22.33;;;;;;;;;;6270210;28;20434;-78
2023/01/26 06:22:36;;;;;;;40.67;21.40;;;;;;;;;;6263235;28;20064;-78
2023/01/26 06:25:39;;;;;;;38.28;21.98;;;;;;;;;;6263737;28;20060;-78
2023/01/26 06:28:40;;;;;;;45.15;22.98;;;;;;;;;;6265030;28;20320;-77
2023/01/26 06:31:42;;;;;;;36.90;21.65;;;;;;;;;;6263479;28;20256;-78
2023/01/26 06:34:45;;;;;;;38.95;22.67;;;;;;;;;;6265909;28;20053;-77
2023/01/26 06:37:48;;;;;;;36.70;20.73;;;;;;;;;;6262647;28;20350;-78
2023/01/26 06:40:51;;;;;;;33.55;19.23;;;;;;;;;;6265452;28;20053;-79
2023/01/26 06:43:52;;;;;;;37.03;19.48;;;;;;;;;;6261795;28;20060;-78
2023/01/26 06:46:54;;;;;;;36.33;19.48;;;;;;;;;;6265766;28;20114;-78
2023/01/26 06:49:57;;;;;;;36.08;19.88;;;;;;;;;;6263193;28;20396;-79
2023/01/26 06:53:00;;;;;;;38.72;20.85;;;;;;;;;;6260393;28;20044;-77
2023/01/26 06:56:01;;;;;;;34.42;20.05;;;;;;;;;;6262943;28;20045;-78
2023/01/26 06:59:04;;;;;;;38.92;20.10;;;;;;;;;;6265590;28;20099;-77
2023/01/26 07:02:06;;;;;;;35.65;19.48;;;;;;;;;;6262736;28;20067;-76
2023/01/26 07:05:10;;;;;;;40.08;21.48;;;;;;;;;;6264112;28;20052;-78
2023/01/26 07:08:11;;;;;;;39.13;21.67;;;;;;;;;;6261465;28;20175;-77
2023/01/26 07:11:13;;;;;;;37.22;20.45;;;;;;;;;;6265256;28;20175;-78
2023/01/26 07:14:15;;;;;;;34.60;21.38;;;;;;;;;;6263333;28;20160;-78
2023/01/26 07:17:17;;;;;;;34.25;20.58;;;;;;;;;;6258642;28;20316;-78
2023/01/26 07:20:20;;;;;;;33.33;21.05;;;;;;;;;;6263031;28;20057;-77
2023/01/26 07:23:22;;;;;;;38.58;20.98;;;;;;;;;;6265534;28;20055;-78
2023/01/26 07:26:23;;;;;;;35.53;20.50;;;;;;;;;;6259691;28;20053;-77
2023/01/26 07:29:25;;;;;;;34.33;20.15;;;;;;;;;;6262659;28;20064;-77
2023/01/26 07:32:27;;;;;;;35.58;20.10;;;;;;;;;;6259758;28;20061;-75
2023/01/26 07:35:30;;;;;;;36.10;19.55;;;;;;;;;;6263840;28;20055;-77
2023/01/26 07:38:32;;;;;;;37.78;19.15;;;;;;;;;;6260127;28;20353;-79
2023/01/26 07:41:34;;;;;;;33.17;19.80;;;;;;;;;;6264710;28;20056;-77
2023/01/26 07:44:36;;;;;;;33.50;18.05;;;;;;;;;;6264938;28;20053;-77
2023/01/26 07:47:37;;;;;;;30.55;17.08;;;;;;;;;;6262232;28;20071;-76
2023/01/26 07:50:40;;;;;;;28.33;16.52;;;;;;;;;;6264522;28;20052;-78
2023/01/26 07:53:42;;;;;;;28.45;17.05;;;;;;;;;;6263414;28;20060;-78
2023/01/26 07:56:44;;;;;;;31.73;16.95;;;;;;;;;;6263001;28;20053;-74
2023/01/26 07:59:46;;;;;;;33.40;17.05;;;;;;;;;;6262703;28;20045;-79
2023/01/26 08:02:50;;;;;;;31.70;16.33;;;;;;;;;;6262307;28;20179;-77
2023/01/26 08:05:54;;;;;;;27.98;15.90;;;;;;;;;;6262731;28;20045;-79
2023/01/26 08:08:56;;;;;;;28.73;15.95;;;;;;;;;;6264420;28;20057;-79
2023/01/26 08:11:58;;;;;;;29.13;14.95;;;;;;;;;;6262456;28;20128;-78
2023/01/26 08:14:59;;;;;;;25.30;14.82;;;;;;;;;;6263554;28;20099;-78
2023/01/26 08:18:02;;;;;;;26.60;14.75;;;;;;;;;;6262681;28;20060;-78
2023/01/26 08:21:05;;;;;;;24.38;13.93;;;;;;;;;;6264325;28;20270;-78
2023/01/26 08:24:07;;;;;;;23.67;14.27;;;;;;;;;;6261779;28;20080;-76
2023/01/26 08:27:09;;;;;;;22.35;13.45;;;;;;;;;;6263591;28;20289;-78
2023/01/26 08:30:12;;;;;;;24.33;13.45;;;;;;;;;;6262252;28;20061;-77
2023/01/26 08:33:13;;;;;;;22.00;12.18;;;;;;;;;;6260230;28;20131;-78
2023/01/26 08:36:17;;;;;;;22.73;12.07;;;;;;;;;;6259099;28;20061;-78
2023/01/26 08:39:19;;;;;;;25.55;11.65;;;;;;;;;;6262963;28;20210;-77
2023/01/26 08:42:20;;;;;;;17.25;10.32;;;;;;;;;;6261812;28;20051;-78
2023/01/26 08:45:22;;;;;;;17.42;10.27;;;;;;;;;;6267384;28;20319;-74
2023/01/26 08:48:24;;;;;;;21.48;10.55;;;;;;;;;;6265579;28;20045;-76
2023/01/26 08:51:27;;;;;;;18.80;10.25;;;;;;;;;;6262161;28;20065;-74
2023/01/26 08:54:29;;;;;;;15.38;9.82;;;;;;;;;;6264654;28;20052;-78
2023/01/26 08:57:30;;;;;;;24.25;10.27;;;;;;;;;;6265301;28;20349;-77
2023/01/26 09:00:33;;;;;;;18.60;9.93;;;;;;;;;;6263846;28;20052;-79
2023/01/26 09:03:35;;;;;;;22.33;10.05;;;;;;;;;;6270307;28;20079;-78
2023/01/26 09:06:38;;;;;;;17.17;9.25;;;;;;;;;;6266175;28;20049;-77
2023/01/26 09:09:39;;;;;;;23.15;9.80;;;;;;;;;;6267005;28;21071;-78
2023/01/26 09:12:41;;;;;;;18.92;9.77;;;;;;;;;;6266526;28;20053;-78
2023/01/26 09:15:43;;;;;;;18.58;9.52;;;;;;;;;;6263668;28;20049;-78
2023/01/26 09:18:44;;;;;;;17.30;8.77;;;;;;;;;;6265711;28;20061;-77
2023/01/26 09:21:47;;;;;;;16.88;8.60;;;;;;;;;;6265069;28;20057;-77
2023/01/26 09:24:49;;;;;;;16.40;8.77;;;;;;;;;;6263493;28;20075;-78
2023/01/26 09:27:51;;;;;;;15.00;8.05;;;;;;;;;;6269798;28;20122;-78
2023/01/26 09:30:52;;;;;;;13.32;7.43;;;;;;;;;;6266731;28;20053;-77
2023/01/26 09:33:54;;;;;;;14.73;6.65;;;;;;;;;;6268059;28;20126;-76
2023/01/26 09:36:57;;;;;;;10.07;6.63;;;;;;;;;;6263998;28;20107;-78
2023/01/26 09:39:59;;;;;;;13.73;7.05;;;;;;;;;;6266384;28;20053;-78
2023/01/26 09:43:08;;;;;;;12.05;6.45;;;;;;;;;;6267629;28;20051;-78
2023/01/26 09:46:19;;;;;;;15.15;7.03;;;;;;;;;;6272781;28;20079;-78
2023/01/26 09:49:25;;;;;;;13.48;7.70;;;;;;;;;;6227006;28;1149628;-78
2023/01/26 09:52:30;;;;;;;15.55;7.60;;;;;;;;;;6269861;28;20325;-78
2023/01/26 09:55:32;;;;;;;18.10;7.60;;;;;;;;;;6270048;28;20301;-78
2023/01/26 09:58:38;;;;;;;14.68;7.45;;;;;;;;;;6267394;28;20065;-78
2023/01/26 10:01:43;;;;;;;15.35;7.70;;;;;;;;;;6272542;28;20053;-77
2023/01/26 10:04:47;;;;;;;13.15;7.32;;;;;;;;;;6270735;28;20061;-76
2023/01/26 10:07:50;;;;;;;13.50;7.35;;;;;;;;;;6268738;28;20053;-76
2023/01/26 10:10:54;;;;;;;16.77;7.90;;;;;;;;;;6269158;28;20229;-78
2023/01/26 10:13:59;;;;;;;16.33;7.85;;;;;;;;;;6262654;28;20049;-78
2023/01/26 10:17:01;;;;;;;12.23;6.82;;;;;;;;;;6265680;28;20053;-74
2023/01/26 10:20:06;;;;;;;13.38;7.57;;;;;;;;;;6264155;28;20040;-78
2023/01/26 10:23:15;;;;;;;13.32;7.53;;;;;;;;;;6264011;28;20065;-78
2023/01/26 10:26:19;;;;;;;15.23;7.50;;;;;;;;;;6264941;28;20230;-76
2023/01/26 10:29:21;;;;;;;14.05;7.40;;;;;;;;;;6264472;28;20252;-77
2023/01/26 10:32:22;;;;;;;13.13;7.70;;;;;;;;;;6264871;28;20317;-77
2023/01/26 10:35:25;;;;;;;14.60;8.15;;;;;;;;;;6266222;28;20087;-78
2023/01/26 10:38:39;;;;;;;15.15;7.85;;;;;;;;;;6262779;28;20090;-78
2023/01/26 10:41:41;;;;;;;13.63;7.57;;;;;;;;;;6262483;28;20442;-78
2023/01/26 10:44:43;;;;;;;13.18;7.82;;;;;;;;;;6264772;28;20308;-77
2023/01/26 10:48:02;;;;;;;13.88;7.20;;;;;;;;;;6264425;28;20294;-78
2023/01/26 10:51:15;;;;;;;13.18;7.32;;;;;;;;;;6265147;28;20049;-78
2023/01/26 10:54:23;;;;;;;13.50;7.47;;;;;;;;;;6267899;28;20052;-78
2023/01/26 10:57:27;;;;;;;16.15;7.20;;;;;;;;;;6264575;28;20110;-77
2023/01/26 11:00:32;;;;;;;12.45;7.15;;;;;;;;;;6261842;28;20072;-78
2023/01/26 11:03:33;;;;;;;;;;;;;;;;;;6269067;28;20119;-78
2023/01/26 11:06:35;;;;;;;15.32;7.20;;;;;;;;;;6263085;28;19928;-76
2023/01/26 11:09:38;;;;;;;15.27;7.65;;;;;;;;;;6263341;28;20045;-77
2023/01/26 11:12:39;;;;;;;14.93;8.10;;;;;;;;;;6263148;28;20060;-77
2023/01/26 11:15:43;;;;;;;14.40;7.82;;;;;;;;;;6263639;28;20045;-77
2023/01/26 11:18:54;;;;;;;15.07;7.40;;;;;;;;;;6263828;28;20049;-77
2023/01/26 11:21:59;;;;;;;14.52;7.40;;;;;;;;;;6264852;28;20270;-78
2023/01/26 11:25:11;;;;;;;13.93;7.80;;;;;;;;;;6262678;28;20064;-78
2023/01/26 11:28:26;;;;;;;16.30;8.50;;;;;;;;;;6262403;28;20058;-75
2023/01/26 11:31:39;;;;;;;12.43;7.72;;;;;;;;;;6262624;28;20108;-78
2023/01/26 11:34:48;;;;;;;14.65;7.93;;;;;;;;;;6262577;28;20048;-78
2023/01/26 11:37:57;;;;;;;16.33;7.57;;;;;;;;;;6262115;28;20087;-75
2023/01/26 11:41:07;;;;;;;15.25;8.10;;;;;;;;;;6262200;28;20068;-78
2023/01/26 11:44:36;;;;;;;16.13;7.88;;;;;;;;;;6262073;28;20084;-73
2023/01/26 11:47:49;;;;;;;14.95;7.93;;;;;;;;;;6243868;28;20111;-74
2023/01/26 11:50:55;;;;;;;13.70;8.32;;;;;;;;;;6262977;28;20041;-76
2023/01/26 11:54:27;;;;;;;14.52;7.63;;;;;;;;;;6265352;28;20084;-73
2023/01/26 11:57:36;;;;;;;13.98;8.25;;;;;;;;;;6264210;28;20090;-78
2023/01/26 12:00:40;;;;;;;14.20;8.48;;;;;;;;;;6262444;28;20056;-78
2023/01/26 12:03:45;;;;;;;15.18;8.52;;;;;;;;;;6261223;28;20056;-77
2023/01/26 12:06:52;;;;;;;14.90;8.75;;;;;;;;;;6261030;28;20095;-78
2023/01/26 12:09:54;;;;;;;19.38;8.82;;;;;;;;;;6262103;28;20309;-77
2023/01/26 12:13:03;;;;;;;14.43;8.10;;;;;;;;;;6262617;28;20056;-77
2023/01/26 12:16:15;;;;;;;11.98;7.55;;;;;;;;;;6264346;28;20365;-74
2023/01/26 12:19:34;;;;;;;15.25;8.68;;;;;;;;;;6262440;28;20064;-78
2023/01/26 12:22:37;;;;;;;13.93;7.90;;;;;;;;;;6261230;28;20133;-74
2023/01/26 12:25:41;;;;;;;15.02;7.93;;;;;;;;;;6261822;28;20264;-75
2023/01/26 12:28:48;;;;;;;15.88;8.43;;;;;;;;;;6262646;28;20053;-73
2023/01/26 12:31:54;;;;;;;16.00;8.85;;;;;;;;;;6263790;28;20060;-78
2023/01/26 12:34:55;;;;;;;37.22;19.70;;;;;;;;;;6264724;28;20065;-80
2023/01/26 12:38:04;;;;;;;24.88;13.95;;;;;;;;;;6262619;28;20061;-79
2023/01/26 12:41:11;;;;;;;47.58;27.30;;;;;;;;;;6265746;28;20419;-79
2023/01/26 12:44:28;;;;;;;18.17;11.00;;;;;;;;;;6260860;28;20837;-80
2023/01/26 12:47:33;;;;;;;30.80;17.42;;;;;;;;;;6260468;28;20052;-78
2023/01/26 12:50:39;;;;;;;13.02;8.43;;;;;;;;;;6265454;28;20218;-74
2023/01/26 12:53:49;;;;;;;12.95;8.15;;;;;;;;;;6260973;28;20057;-78
2023/01/26 12:56:53;;;;;;;15.05;7.65;;;;;;;;;;6264116;28;20314;-78
2023/01/26 13:00:04;;;;;;;14.48;8.93;;;;;;;;;;6261344;28;20061;-77
2023/01/26 13:03:14;;;;;;;16.50;8.65;;;;;;;;;;6262338;28;20068;-79
2023/01/26 13:06:21;;;;;;;15.40;8.60;;;;;;;;;;6261759;28;20137;-79
2023/01/26 13:09:24;;;;;;;18.13;8.75;;;;;;;;;;6261859;28;20113;-76
2023/01/26 13:12:46;;;;;;;13.63;8.00;;;;;;;;;;6261530;28;20068;-78
2023/01/26 13:16:36;;;;;;;21.00;9.57;;;;;;;;;;6259579;28;20341;-76
2023/01/26 13:19:52;;;;;;;17.08;9.10;;;;;;;;;;6216464;28;20046;-75
2023/01/26 13:22:54;;;;;;;17.58;9.48;;;;;;;;;;6214207;28;20054;-77
2023/01/26 13:26:14;;;;;;;17.77;9.52;;;;;;;;;;6213749;28;20205;-77
2023/01/26 13:29:34;;;;;;;20.17;9.63;;;;;;;;;;6216005;28;20046;-76
2023/01/26 13:33:09;;;;;;;15.93;9.20;;;;;;;;;;6221205;28;20343;-75
2023/01/26 13:36:15;;;;;;;16.75;10.07;;;;;;;;;;6216018;28;20358;-77
2023/01/26 13:39:26;;;;;;;19.83;9.82;;;;;;;;;;6194878;28;20354;-76
2023/01/26 13:42:41;;;;;;;17.23;10.50;;;;;;;;;;6195718;28;20047;-72
2023/01/26 13:45:51;;;;;;;17.52;11.10;;;;;;;;;;6198599;28;20062;-74
2023/01/26 13:48:55;;;;;;;21.10;11.10;;;;;;;;;;6196773;28;20054;-78
2023/01/26 13:51:57;;;;;;;;;;;;;;;;;;6195294;28;20054;-76
2023/01/26 13:55:00;;;;;;;22.02;10.70;;;;;;;;;;6216236;28;19917;-79
2023/01/26 13:58:12;;;;;;;19.83;11.35;;;;;;;;;;6258066;28;20052;-76
2023/01/26 14:01:15;;;;;;;19.95;11.70;;;;;;;;;;6268449;28;20155;-79
2023/01/26 14:04:20;;;;;;;37.53;22.40;;;;;;;;;;6265192;28;20068;-76
2023/01/26 14:07:25;;;;;;;99.88;53.95;;;;;;;;;;6264587;28;20056;-75
2023/01/26 14:10:27;;;;;;;48.00;24.17;;;;;;;;;;6264474;28;20057;-74
2023/01/26 14:13:32;;;;;;;21.20;11.70;;;;;;;;;;6270652;28;20057;-75
2023/01/26 14:16:35;;;;;;;21.17;10.38;;;;;;;;;;6265854;28;20095;-76
2023/01/26 14:19:41;;;;;;;21.35;10.55;;;;;;;;;;6265654;28;20099;-78
2023/01/26 14:22:43;;;;;;;20.85;10.88;;;;;;;;;;6263757;28;20057;-72
2023/01/26 14:25:47;;;;;;;21.10;11.13;;;;;;;;;;6267263;28;20044;-78
2023/01/26 14:28:48;;;;;;;;;;;;;;;;;;6265536;28;20260;-77
2023/01/26 14:31:51;;;;;;;19.08;9.43;;;;;;;;;;6264249;28;19928;-76
2023/01/26 14:34:56;;;;;;;16.35;9.93;;;;;;;;;;6265364;28;20057;-75
2023/01/26 14:38:16;;;;;;;18.38;10.27;;;;;;;;;;6268573;28;20058;-76
2023/01/26 14:41:22;;;;;;;19.67;9.98;;;;;;;;;;6263644;28;20121;-76
2023/01/26 14:44:23;;;;;;;20.17;9.90;;;;;;;;;;6269059;28;20053;-75
2023/01/26 14:47:27;;;;;;;16.70;10.23;;;;;;;;;;6263802;28;20057;-71
2023/01/26 14:50:31;;;;;;;18.35;10.10;;;;;;;;;;6265568;28;20056;-75
2023/01/26 14:53:32;;;;;;;19.40;10.23;;;;;;;;;;6264585;28;20119;-75
2023/01/26 14:56:37;;;;;;;21.35;10.70;;;;;;;;;;6264806;28;20340;-76
2023/01/26 14:59:38;;;;;;;;;;;;;;;;;;6264557;28;20057;-76
2023/01/26 15:02:43;;;;;;;22.05;10.38;;;;;;;;;;6262249;28;19932;-75
2023/01/26 15:05:46;;;;;;;20.52;10.00;;;;;;;;;;6264022;28;20045;-76
2023/01/26 15:08:56;;;;;;;17.85;9.77;;;;;;;;;;6263417;28;20119;-76
2023/01/26 15:12:17;;;;;;;19.20;10.85;;;;;;;;;;6262989;28;20134;-71
2023/01/26 15:15:20;;;;;;;20.95;10.95;;;;;;;;;;6266965;28;20108;-73
2023/01/26 15:18:22;;;;;;;19.70;10.45;;;;;;;;;;6262657;28;20044;-75
2023/01/26 15:21:32;;;;;;;21.38;11.30;;;;;;;;;;6262625;28;20063;-75
2023/01/26 15:24:34;;;;;;;20.05;11.10;;;;;;;;;;6260732;28;20045;-75
2023/01/26 15:27:36;;;;;;;20.17;10.50;;;;;;;;;;6263591;28;20068;-73
2023/01/26 15:30:38;;;;;;;18.35;9.85;;;;;;;;;;6263416;28;20053;-74
2023/01/26 15:33:51;;;;;;;18.33;10.65;;;;;;;;;;6263209;28;20045;-76
2023/01/26 15:36:56;;;;;;;19.80;10.80;;;;;;;;;;6260959;28;20138;-76
2023/01/26 15:39:58;;;;;;;20.75;11.07;;;;;;;;;;6262667;28;20053;-76
2023/01/26 15:43:11;;;;;;;21.73;11.65;;;;;;;;;;6264663;28;20298;-74
2023/01/26 15:46:13;;;;;;;20.60;10.40;;;;;;;;;;6263090;28;20121;-71
2023/01/26 15:49:18;;;;;;;23.05;10.82;;;;;;;;;;6259723;28;20107;-76
2023/01/26 15:52:24;;;;;;;15.85;9.45;;;;;;;;;;6263453;28;20147;-76
2023/01/26 15:55:27;;;;;;;19.98;9.73;;;;;;;;;;6265017;28;20083;-76
2023/01/26 15:58:30;;;;;;;19.10;10.32;;;;;;;;;;6263580;28;20053;-77
2023/01/26 16:01:32;;;;;;;16.50;9.48;;;;;;;;;;6260515;28;20049;-76
2023/01/26 16:04:33;;;;;;;18.95;10.05;;;;;;;;;;6265237;28;20056;-77
2023/01/26 16:07:36;;;;;;;18.73;9.85;;;;;;;;;;6266081;28;20045;-73
2023/01/26 16:10:38;;;;;;;18.63;9.77;;;;;;;;;;6264393;28;20060;-78
2023/01/26 16:13:42;;;;;;;19.90;10.23;;;;;;;;;;6262156;28;20057;-76
2023/01/26 16:16:44;;;;;;;;;;;;;;;;;;6262944;28;20049;-76
2023/01/26 16:19:46;;;;;;;16.75;9.70;;;;;;;;;;6261235;28;19998;-73
2023/01/26 16:22:49;;;;;;;17.67;10.00;;;;;;;;;;6263974;28;20233;-78
2023/01/26 16:25:51;;;;;;;17.27;9.52;;;;;;;;;;6261244;28;20049;-78
2023/01/26 16:28:53;;;;;;;18.65;9.68;;;;;;;;;;6261438;28;20091;-76
2023/01/26 16:31:55;;;;;;;20.73;10.13;;;;;;;;;;6263526;28;20269;-76
2023/01/26 16:34:57;;;;;;;20.83;10.13;;;;;;;;;;6261507;28;20323;-77
2023/01/26 16:38:00;;;;;;;16.77;9.57;;;;;;;;;;6261682;28;20241;-78
2023/01/26 16:41:02;;;;;;;18.33;8.90;;;;;;;;;;6262419;28;20048;-77
2023/01/26 16:44:03;;;;;;;16.13;9.32;;;;;;;;;;6262335;28;20658;-76
2023/01/26 16:47:05;;;;;;;16.35;8.85;;;;;;;;;;6263166;28;20057;-76
2023/01/26 16:50:07;;;;;;;17.58;9.43;;;;;;;;;;6259236;28;20065;-77
2023/01/26 16:53:18;;;;;;;17.98;9.25;;;;;;;;;;6264193;28;20065;-77
2023/01/26 16:56:20;;;;;;;19.92;9.75;;;;;;;;;;6258221;28;20072;-78
2023/01/26 16:59:22;;;;;;;19.10;9.55;;;;;;;;;;6260520;28;20050;-78
2023/01/26 17:02:25;;;;;;;19.80;10.18;;;;;;;;;;6262590;28;20054;-77
2023/01/26 17:05:26;;;;;;;20.77;9.55;;;;;;;;;;6266003;28;20095;-77
2023/01/26 17:08:29;;;;;;;18.13;9.60;;;;;;;;;;6267790;28;20044;-77
2023/01/26 17:11:31;;;;;;;16.83;9.70;;;;;;;;;;6266680;28;20349;-77
2023/01/26 17:14:33;;;;;;;20.55;10.10;;;;;;;;;;6269905;28;20297;-77
2023/01/26 17:17:35;;;;;;;16.33;9.43;;;;;;;;;;6267065;28;20229;-75
2023/01/26 17:20:37;;;;;;;21.20;10.52;;;;;;;;;;6264039;28;20095;-77
2023/01/26 17:23:43;;;;;;;22.13;10.27;;;;;;;;;;6263654;28;20068;-77
2023/01/26 17:26:44;;;;;;;20.13;9.98;;;;;;;;;;6268483;28;20045;-77
2023/01/26 17:29:48;;;;;;;17.77;10.32;;;;;;;;;;6265540;28;20057;-79
2023/01/26 17:32:49;;;;;;;18.58;10.13;;;;;;;;;;6268118;28;20352;-77
2023/01/26 17:36:00;;;;;;;23.17;10.35;;;;;;;;;;6265979;28;20127;-78
2023/01/26 17:39:03;;;;;;;17.27;9.52;;;;;;;;;;6264365;28;20040;-76
2023/01/26 17:42:05;;;;;;;17.73;9.88;;;;;;;;;;6265721;28;20048;-77
2023/01/26 17:45:08;;;;;;;22.23;11.07;;;;;;;;;;6268945;28;20061;-76
2023/01/26 17:48:10;;;;;;;18.25;10.25;;;;;;;;;;6263062;28;20114;-76
2023/01/26 17:51:15;;;;;;;20.73;11.27;;;;;;;;;;6265005;28;20052;-77
2023/01/26 17:54:18;;;;;;;17.73;10.18;;;;;;;;;;6266783;28;20052;-77
2023/01/26 17:57:20;;;;;;;21.70;10.52;;;;;;;;;;6265200;28;20344;-77
2023/01/26 18:00:21;;;;;;;18.98;9.75;;;;;;;;;;6266702;28;20154;-78
2023/01/26 18:03:25;;;;;;;20.20;11.18;;;;;;;;;;6267567;28;20091;-76
2023/01/26 18:06:26;;;;;;;19.27;9.93;;;;;;;;;;6260027;28;20052;-78
2023/01/26 18:09:30;;;;;;;19.77;10.13;;;;;;;;;;6266997;28;20068;-78
2023/01/26 18:12:32;;;;;;;20.07;10.37;;;;;;;;;;6265889;28;20049;-78
2023/01/26 18:15:36;;;;;;;23.67;11.05;;;;;;;;;;6265212;28;20258;-79
2023/01/26 18:18:37;;;;;;;22.23;11.20;;;;;;;;;;6266663;28;20162;-79
2023/01/26 18:21:39;;;;;;;23.95;10.75;;;;;;;;;;6265372;28;20044;-78
2023/01/26 18:24:42;;;;;;;24.92;11.82;;;;;;;;;;6262859;28;20049;-76
2023/01/26 18:27:44;;;;;;;21.23;11.68;;;;;;;;;;6262832;28;20053;-72
2023/01/26 18:30:45;;;;;;;18.25;10.00;;;;;;;;;;6264969;28;20048;-74
2023/01/26 18:33:47;;;;;;;20.70;10.68;;;;;;;;;;6262055;28;20098;-81
2023/01/26 18:36:49;;;;;;;21.40;11.85;;;;;;;;;;6263389;28;20053;-69
2023/01/26 18:39:52;;;;;;;24.15;11.38;;;;;;;;;;6264151;28;20049;-74
2023/01/26 18:42:54;;;;;;;24.08;11.55;;;;;;;;;;6261933;28;20057;-73
2023/01/26 18:45:56;;;;;;;21.50;11.00;;;;;;;;;;6265935;28;20265;-73